Time;durP1;ratioP1;P1;durP2;ratioP2;P2;SDS_P1;SDS_P2;PMS_P1;PMS_P2;Temp;Humidity;BMP_temperature;BMP_pressure;BME280_temperature;BME280_humidity;BME280_pressure;Samples;Min_cycle;Max_cycle;Signal;HPM_P1;HPM_P2
2022/06/30 00:00:59;;;;;;;;;;;;;;;23.22;62.63;99447.41;2076316;28;20308;-57
2022/06/30 00:01:59;;;;;;;;;;;;;;;23.22;62.62;99430.81;2077959;28;19921;-58
2022/06/30 00:02:59;;;;;;;;;;;;;;;23.21;62.76;99418.25;2076207;28;19913;-57
2022/06/30 00:04:00;;;;;;;;;;;;;;;23.21;62.81;99407.22;2078565;28;19921;-57
2022/06/30 00:05:00;;;;;;;;;;;;;;;23.21;62.94;99400.91;2075764;28;19921;-57
2022/06/30 00:06:01;;;;;;;;;;;;;;;23.21;62.88;99395.41;2076254;28;20274;-57
2022/06/30 00:07:01;;;;;;;;;;;;;;;23.21;62.89;99403.69;2078338;28;19923;-57
2022/06/30 00:08:02;;;;;;;;;;;;;;;23.20;62.96;99416.72;2075193;28;19924;-57
2022/06/30 00:09:02;;;;;;;;;;;;;;;23.19;63.28;99426.22;2077801;28;20229;-57
2022/06/30 00:10:03;;;;;;;;;;;;;;;23.20;63.20;99427.78;2072045;28;19908;-57
2022/06/30 00:11:06;;;;;;;;;;;;;;;23.19;63.55;99417.94;2076175;28;20011;-58
2022/06/30 00:12:07;;;;;;;;;;;;;;;23.17;63.55;99423.91;2076038;28;19917;-57
2022/06/30 00:13:07;;;;;;;;;;;;;;;23.17;63.71;99429.44;2077741;28;19913;-57
2022/06/30 00:14:09;;;;;;;;;;;;;;;23.14;63.96;99441.41;2073058;28;19920;-57
2022/06/30 00:15:09;;;;;;;;;;;;;;;23.12;64.01;99451.38;2077394;28;19916;-57
2022/06/30 00:16:10;;;;;;;;;;;;;;;23.07;64.01;99463.00;2072954;28;19923;-58
2022/06/30 00:17:11;;;;;;;;;;;;;;;23.05;63.86;99462.72;2072041;28;20169;-57
2022/06/30 00:18:11;;;;;;;;;;;;;;;23.01;64.24;99453.78;2068038;28;19917;-57
2022/06/30 00:19:11;;;;;;;;;;;;;;;22.96;64.21;99457.91;2074442;28;19960;-57
2022/06/30 00:20:12;;;;;;;;;;;;;;;22.98;63.85;99461.00;2075727;28;19974;-57
2022/06/30 00:21:12;;;;;;;;;;;;;;;22.95;64.12;99461.13;2076574;28;19921;-58
2022/06/30 00:22:13;;;;;;;;;;;;;;;22.92;64.26;99451.75;2074487;28;19917;-57
2022/06/30 00:23:13;;;;;;;;;;;;;;;22.89;64.32;99455.44;2076875;28;20413;-57
2022/06/30 00:24:13;;;;;;;;;;;;;;;22.90;64.27;99459.72;2076527;28;19996;-57
2022/06/30 00:25:14;;;;;;;;;;;;;;;22.91;64.37;99457.72;2078172;28;20409;-57
2022/06/30 00:26:14;;;;;;;;;;;;;;;22.92;64.25;99451.75;2061607;28;20330;-58
2022/06/30 00:27:15;;;;;;;;;;;;;;;22.93;64.26;99460.81;2065077;28;19909;-58
2022/06/30 00:28:18;;;;;;;;;;;;;;;22.93;64.25;99455.28;2077301;28;19925;-57
2022/06/30 00:29:18;;;;;;;;;;;;;;;22.92;64.12;99457.28;2068498;28;20335;-58
2022/06/30 00:30:19;;;;;;;;;;;;;;;22.91;64.13;99455.75;2066379;28;20519;-58
2022/06/30 00:31:20;;;;;;;;;;;;;;;22.89;64.34;99452.69;2068183;28;20220;-58
2022/06/30 00:32:20;;;;;;;;;;;;;;;22.91;64.08;99449.44;2067478;28;19923;-57
2022/06/30 00:33:20;;;;;;;;;;;;;;;22.91;64.23;99441.94;2076645;28;20392;-57
2022/06/30 00:34:21;;;;;;;;;;;;;;;22.93;64.30;99441.50;2074360;28;19944;-58
2022/06/30 00:35:21;;;;;;;;;;;;;;;22.92;64.28;99428.91;2076960;28;19924;-58
2022/06/30 00:36:21;;;;;;;;;;;;;;;22.93;64.22;99435.97;2075788;28;19932;-58
2022/06/30 00:37:22;;;;;;;;;;;;;;;22.93;64.23;99419.41;2077704;28;20215;-58
2022/06/30 00:38:22;;;;;;;;;;;;;;;22.92;64.29;99409.56;2058913;28;20023;-58
2022/06/30 00:39:23;;;;;;;;;;;;;;;22.92;64.18;99401.28;2059694;28;19913;-58
2022/06/30 00:40:23;;;;;;;;;;;;;;;22.92;64.07;99401.28;2077286;28;20253;-59
2022/06/30 00:41:23;;;;;;;;;;;;;;;22.93;64.14;99402.84;2076277;28;19923;-58
2022/06/30 00:42:24;;;;;;;;;;;;;;;22.94;64.16;99407.91;2062818;28;19929;-61
2022/06/30 00:43:24;;;;;;;;;;;;;;;22.95;64.12;99401.13;2067696;28;19921;-55
2022/06/30 00:44:25;;;;;;;;;;;;;;;22.94;64.13;99402.38;2076267;28;20224;-57
2022/06/30 00:45:25;;;;;;;;;;;;;;;22.96;64.07;99399.16;2078529;28;19917;-53
2022/06/30 00:46:25;;;;;;;;;;;;;;;22.96;64.11;99390.88;2076263;28;19928;-54
2022/06/30 00:47:26;;;;;;;;;;;;;;;22.95;64.14;99389.31;2078642;28;20334;-53
2022/06/30 00:48:26;;;;;;;;;;;;;;;22.95;64.22;99384.56;2076214;28;20263;-54
2022/06/30 00:49:27;;;;;;;;;;;;;;;22.93;64.18;99383.50;2077200;28;19927;-54
2022/06/30 00:50:27;;;;;;;;;;;;;;;22.93;64.20;99375.22;2078462;28;19955;-54
2022/06/30 00:51:28;;;;;;;;;;;;;;;22.94;64.00;99376.75;2077190;28;19917;-53
2022/06/30 00:52:29;;;;;;;;;;;;;;;22.94;63.96;99371.25;2077992;28;20373;-52
2022/06/30 00:53:30;;;;;;;;;;;;;;;22.94;64.00;99362.97;2072670;28;20011;-54
2022/06/30 00:54:33;;;;;;;;;;;;;;;22.94;64.18;99362.97;2068244;28;20295;-54
2022/06/30 00:55:33;;;;;;;;;;;;;;;22.94;64.20;99358.19;2077095;28;19916;-54
2022/06/30 00:56:34;;;;;;;;;;;;;;;22.95;64.16;99367.22;2073424;28;20574;-54
2022/06/30 00:57:37;;;;;;;;;;;;;;;22.96;64.24;99374.28;2077575;28;19977;-54
2022/06/30 00:58:38;;;;;;;;;;;;;;;22.98;64.16;99371.84;2069601;28;19915;-54
2022/06/30 00:59:40;;;;;;;;;;;;;;;22.97;64.27;99373.84;2070813;28;19909;-54
2022/06/30 01:00:41;;;;;;;;;;;;;;;22.97;64.19;99362.81;2076324;28;20968;-54
2022/06/30 01:01:42;;;;;;;;;;;;;;;22.98;64.34;99366.34;2077355;28;19917;-53
2022/06/30 01:02:43;;;;;;;;;;;;;;;22.98;64.33;99366.34;2074750;28;19959;-55
2022/06/30 01:03:43;;;;;;;;;;;;;;;22.97;64.39;99354.53;2070383;28;20368;-54
2022/06/30 01:04:45;;;;;;;;;;;;;;;22.98;64.35;99366.34;2074077;28;20153;-54
2022/06/30 01:05:46;;;;;;;;;;;;;;;22.99;64.40;99365.13;2077724;28;19917;-53
2022/06/30 01:06:47;;;;;;;;;;;;;;;22.98;64.54;99367.09;2077054;28;19917;-54
2022/06/30 01:07:47;;;;;;;;;;;;;;;22.98;64.50;99369.88;2077051;28;19924;-54
2022/06/30 01:08:48;;;;;;;;;;;;;;;22.98;64.52;99369.88;2076550;28;19917;-54
2022/06/30 01:12:44;;;;;;;;;;;;;;;22.97;64.48;99350.97;2077697;28;20382;-54
2022/06/30 01:13:45;;;;;;;;;;;;;;;22.96;64.61;99341.16;2070555;28;19917;-53
2022/06/30 01:14:46;;;;;;;;;;;;;;;22.97;64.70;99350.97;2075621;28;19924;-54
2022/06/30 01:15:47;;;;;;;;;;;;;;;22.96;64.68;99349.44;2076496;28;19917;-54
2022/06/30 01:16:47;;;;;;;;;;;;;;;22.96;64.75;99357.72;2076203;28;19916;-54
2022/06/30 01:17:48;;;;;;;;;;;;;;;22.96;64.70;99366.00;2077523;28;20329;-54
2022/06/30 01:18:49;;;;;;;;;;;;;;;22.95;64.65;99368.00;2078828;28;20196;-54
2022/06/30 01:19:56;;;;;;;;;;;;;;;22.94;64.71;99363.72;2075294;28;19917;-54
2022/06/30 01:20:56;;;;;;;;;;;;;;;22.94;64.54;99366.50;2070356;28;19924;-54
2022/06/30 01:22:01;;;;;;;;;;;;;;;22.93;64.66;99373.22;2068567;28;19956;-54
2022/06/30 01:23:02;;;;;;;;;;;;;;;22.95;64.90;99368.00;2069696;28;20482;-54
2022/06/30 01:24:02;;;;;;;;;;;;;;;22.95;64.80;99370.00;2069478;28;19956;-54
2022/06/30 01:25:03;;;;;;;;;;;;;;;22.95;64.62;99364.47;2068030;28;19917;-52
2022/06/30 01:26:04;;;;;;;;;;;;;;;22.95;64.55;99354.19;2074214;28;20610;-54
2022/06/30 01:27:04;;;;;;;;;;;;;;;22.94;64.80;99360.97;2077263;28;20472;-54
2022/06/30 01:28:05;;;;;;;;;;;;;;;22.94;64.84;99360.97;2075166;28;20616;-54
2022/06/30 01:29:06;;;;;;;;;;;;;;;22.97;64.64;99367.56;2073686;28;19978;-54
2022/06/30 01:30:07;;;;;;;;;;;;;;;22.95;64.81;99361.72;2076676;28;20177;-54
2022/06/30 01:31:07;;;;;;;;;;;;;;;22.95;64.75;99368.00;2072286;28;20311;-54
2022/06/30 01:32:08;;;;;;;;;;;;;;;22.96;64.93;99368.78;2076154;28;19938;-54
2022/06/30 01:33:08;;;;;;;;;;;;;;;22.96;64.71;99368.78;2075668;28;19917;-54
2022/06/30 01:34:08;;;;;;;;;;;;;;;22.95;64.89;99373.53;2076782;28;20040;-54
2022/06/30 01:35:09;;;;;;;;;;;;;;;22.95;64.87;99376.28;2077558;28;19947;-54
2022/06/30 01:36:09;;;;;;;;;;;;;;;22.96;64.82;99379.81;2074356;28;20022;-55
2022/06/30 01:37:10;;;;;;;;;;;;;;;22.95;64.89;99379.03;2076712;28;20041;-54
2022/06/30 01:38:10;;;;;;;;;;;;;;;22.95;64.98;99367.22;2077495;28;19916;-54
2022/06/30 01:39:10;;;;;;;;;;;;;;;22.95;64.91;99373.53;2076761;28;19917;-54
2022/06/30 01:40:11;;;;;;;;;;;;;;;22.94;65.01;99366.50;2077765;28;20298;-54
2022/06/30 01:41:12;;;;;;;;;;;;;;;22.95;65.23;99365.25;2074746;28;19987;-54
2022/06/30 01:42:13;;;;;;;;;;;;;;;22.95;65.19;99364.47;2076493;28;19924;-54
2022/06/30 01:43:13;;;;;;;;;;;;;;;22.95;65.06;99368.00;2077406;28;20341;-54
2022/06/30 01:44:13;;;;;;;;;;;;;;;22.95;65.09;99367.22;2075392;28;19917;-54
2022/06/30 01:45:14;;;;;;;;;;;;;;;22.95;65.39;99362.47;2078034;28;19960;-54
2022/06/30 01:46:18;;;;;;;;;;;;;;;22.94;65.30;99360.19;2076737;28;20257;-54
2022/06/30 01:47:19;;;;;;;;;;;;;;;22.94;65.18;99366.50;2077464;28;19920;-54
2022/06/30 01:48:19;;;;;;;;;;;;;;;22.95;65.26;99367.22;2076085;28;19917;-54
2022/06/30 01:49:19;;;;;;;;;;;;;;;22.94;65.45;99360.19;2076122;28;19917;-54
2022/06/30 01:50:21;;;;;;;;;;;;;;;22.94;65.26;99360.97;2077267;28;19969;-54
2022/06/30 01:51:21;;;;;;;;;;;;;;;22.94;65.19;99362.97;2073281;28;19913;-54
2022/06/30 01:52:21;;;;;;;;;;;;;;;22.94;65.18;99365.72;2076267;28;19943;-54
2022/06/30 01:53:22;;;;;;;;;;;;;;;22.94;65.29;99360.97;2074157;28;20470;-54
2022/06/30 01:54:23;;;;;;;;;;;;;;;22.94;65.41;99360.19;2077973;28;19956;-53
2022/06/30 01:55:23;;;;;;;;;;;;;;;22.93;65.37;99364.94;2077306;28;19917;-54
2022/06/30 01:56:24;;;;;;;;;;;;;;;22.94;65.42;99371.25;2077636;28;19941;-54
2022/06/30 01:57:24;;;;;;;;;;;;;;;22.93;65.38;99370.47;2075608;28;20073;-53
2022/06/30 01:58:24;;;;;;;;;;;;;;;22.93;65.46;99372.47;2075013;28;19923;-54
2022/06/30 01:59:24;;;;;;;;;;;;;;;22.92;65.43;99368.94;2075848;28;20043;-54
2022/06/30 02:00:26;;;;;;;;;;;;;;;22.93;65.13;99361.41;2077323;28;19924;-54
2022/06/30 02:01:26;;;;;;;;;;;;;;;22.92;65.21;99365.41;2076555;28;19921;-54
2022/06/30 02:02:26;;;;;;;;;;;;;;;22.92;65.30;99368.16;2078681;28;19964;-54
2022/06/30 02:03:27;;;;;;;;;;;;;;;22.92;65.18;99368.16;2079751;28;19917;-53
2022/06/30 02:05:46;;;;;;;;;;;;;;;22.92;65.06;99379.19;2076666;28;19921;-54
2022/06/30 02:06:46;;;;;;;;;;;;;;;22.91;65.44;99370.16;2078145;28;20019;-55
2022/06/30 02:07:47;;;;;;;;;;;;;;;22.91;65.31;99366.63;2077479;28;19920;-54
2022/06/30 02:08:47;;;;;;;;;;;;;;;22.91;65.20;99370.16;2080212;28;19924;-53
2022/06/30 02:09:50;;;;;;;;;;;;;;;22.91;65.37;99374.91;2075379;28;19952;-54
2022/06/30 02:10:51;;;;;;;;;;;;;;;22.90;65.36;99374.13;2068465;28;20176;-54
2022/06/30 02:12:44;;;;;;;;;;;;;;;22.91;65.53;99377.66;2069809;28;20027;-54
2022/06/30 02:13:11;;;;;;;;;;;;;;;22.90;65.36;99378.88;2076702;28;20186;-54
2022/06/30 02:14:12;;;;;;;;;;;;;;;22.91;65.36;99383.19;2077064;28;19917;-54
2022/06/30 02:15:32;;;;;;;;;;;;;;;22.91;65.58;99383.19;2078892;28;19916;-54
2022/06/30 02:16:32;;;;;;;;;;;;;;;22.90;65.56;99378.88;2079004;28;19908;-54
2022/06/30 02:17:33;;;;;;;;;;;;;;;22.90;65.46;99385.16;2078418;28;19917;-54
2022/06/30 02:18:33;;;;;;;;;;;;;;;22.89;65.47;99383.66;2079031;28;20204;-54
2022/06/30 02:19:33;;;;;;;;;;;;;;;22.90;65.40;99381.63;2079104;28;19931;-55
2022/06/30 02:20:34;;;;;;;;;;;;;;;22.89;65.38;99388.41;2078264;28;19925;-54
2022/06/30 02:21:35;;;;;;;;;;;;;;;22.89;65.37;99380.13;2078151;28;20012;-54
2022/06/30 02:22:36;;;;;;;;;;;;;;;22.88;65.58;99387.63;2078954;28;19913;-54
2022/06/30 02:23:36;;;;;;;;;;;;;;;22.90;65.56;99384.41;2070719;28;20306;-54
2022/06/30 02:24:36;;;;;;;;;;;;;;;22.89;65.70;99383.66;2065960;28;19917;-55
2022/06/30 02:25:36;;;;;;;;;;;;;;;22.88;65.45;99389.63;2079823;28;19917;-54
2022/06/30 02:26:37;;;;;;;;;;;;;;;22.88;65.50;99378.59;2075333;28;19917;-55
2022/06/30 02:27:37;;;;;;;;;;;;;;;22.88;65.35;99367.53;2079404;28;19915;-54
2022/06/30 02:28:37;;;;;;;;;;;;;;;22.87;65.55;99368.75;2079429;28;19923;-53
2022/06/30 02:29:38;;;;;;;;;;;;;;;22.87;65.66;99377.81;2077758;28;20892;-54
2022/06/30 02:30:38;;;;;;;;;;;;;;;22.87;65.59;99372.28;2070577;28;19988;-54
2022/06/30 02:31:38;;;;;;;;;;;;;;;22.88;65.62;99378.59;2069419;28;20309;-54
2022/06/30 02:32:39;;;;;;;;;;;;;;;22.86;65.64;99381.78;2074761;28;19923;-54
2022/06/30 02:33:39;;;;;;;;;;;;;;;22.86;65.77;99369.97;2078840;28;19923;-55
2022/06/30 02:34:40;;;;;;;;;;;;;;;22.87;65.92;99377.03;2079626;28;19917;-54
2022/06/30 02:35:40;;;;;;;;;;;;;;;22.85;65.68;99363.69;2078173;28;19924;-54
2022/06/30 02:36:41;;;;;;;;;;;;;;;22.85;65.56;99360.16;2078231;28;20233;-53
2022/06/30 02:37:41;;;;;;;;;;;;;;;22.85;65.81;99355.41;2079602;28;19917;-54
2022/06/30 02:38:41;;;;;;;;;;;;;;;22.84;65.78;99364.91;2070189;28;19918;-54
2022/06/30 02:39:42;;;;;;;;;;;;;;;22.84;65.61;99358.63;2068045;28;20370;-54
2022/06/30 02:40:43;;;;;;;;;;;;;;;22.85;65.47;99360.16;2070726;28;19924;-54
2022/06/30 02:41:43;;;;;;;;;;;;;;;22.85;65.53;99351.88;2076813;28;20585;-54
2022/06/30 02:42:43;;;;;;;;;;;;;;;22.84;65.39;99344.84;2070834;28;19917;-54
2022/06/30 02:43:44;;;;;;;;;;;;;;;22.84;65.58;99337.28;2070408;28;19924;-54
2022/06/30 02:44:44;;;;;;;;;;;;;;;22.83;65.84;99335.78;2078771;28;19912;-53
2022/06/30 02:45:44;;;;;;;;;;;;;;;22.84;65.76;99339.31;2078118;28;20831;-53
2022/06/30 02:46:45;;;;;;;;;;;;;;;22.83;65.85;99348.81;2072182;28;19910;-54
2022/06/30 02:47:45;;;;;;;;;;;;;;;22.84;65.84;99350.34;2076520;28;19921;-54
2022/06/30 02:48:45;;;;;;;;;;;;;;;22.83;65.65;99343.28;2077800;28;19917;-54
2022/06/30 02:49:46;;;;;;;;;;;;;;;22.84;65.61;99355.88;2077849;28;20011;-55
2022/06/30 02:50:46;;;;;;;;;;;;;;;22.83;65.79;99357.09;2076908;28;19960;-54
2022/06/30 02:51:47;;;;;;;;;;;;;;;22.83;65.62;99354.34;2078501;28;20280;-54
2022/06/30 02:52:47;;;;;;;;;;;;;;;22.83;66.23;99359.84;2077237;28;19924;-55
2022/06/30 02:53:47;;;;;;;;;;;;;;;22.83;65.86;99359.84;2069389;28;20303;-55
2022/06/30 02:54:48;;;;;;;;;;;;;;;22.82;65.91;99370.13;2070348;28;19992;-55
2022/06/30 02:55:48;;;;;;;;;;;;;;;22.82;66.06;99363.84;2067691;28;19923;-55
2022/06/30 02:56:49;;;;;;;;;;;;;;;22.82;66.09;99358.31;2075011;28;19925;-54
2022/06/30 02:57:50;;;;;;;;;;;;;;;22.82;66.27;99358.31;2079776;28;19968;-54
2022/06/30 02:58:50;;;;;;;;;;;;;;;22.82;65.77;99361.06;2077140;28;20345;-54
2022/06/30 02:59:51;;;;;;;;;;;;;;;22.81;66.07;99362.28;2080650;28;19986;-54
2022/06/30 03:00:52;;;;;;;;;;;;;;;22.82;65.75;99369.34;2072281;28;20351;-54
2022/06/30 03:01:52;;;;;;;;;;;;;;;22.82;65.67;99363.84;2074257;28;20012;-54
2022/06/30 03:02:52;;;;;;;;;;;;;;;22.80;65.92;99367.03;2077745;28;19923;-54
2022/06/30 03:03:53;;;;;;;;;;;;;;;22.80;65.82;99360.75;2077255;28;20067;-54
2022/06/30 03:04:53;;;;;;;;;;;;;;;22.81;66.00;99365.06;2080816;28;19960;-54
2022/06/30 03:05:53;;;;;;;;;;;;;;;22.80;66.08;99360.75;2076878;28;19912;-54
2022/06/30 03:06:55;;;;;;;;;;;;;;;22.81;66.01;99367.81;2079516;28;20654;-54
2022/06/30 03:07:55;;;;;;;;;;;;;;;22.80;65.97;99378.09;2070262;28;20193;-54
2022/06/30 03:08:56;;;;;;;;;;;;;;;22.80;65.78;99378.09;2068612;28;20338;-54
2022/06/30 03:09:56;;;;;;;;;;;;;;;22.79;65.95;99379.31;2070598;28;20142;-54
2022/06/30 03:10:57;;;;;;;;;;;;;;;22.79;65.89;99378.56;2077076;28;19916;-54
2022/06/30 03:11:57;;;;;;;;;;;;;;;22.78;65.86;99379.78;2078659;28;20736;-54
2022/06/30 03:12:58;;;;;;;;;;;;;;;22.79;66.12;99379.31;2074719;28;19921;-54
2022/06/30 03:13:58;;;;;;;;;;;;;;;22.79;65.76;99381.31;2075656;28;19917;-54
2022/06/30 03:14:58;;;;;;;;;;;;;;;22.78;65.72;99377.03;2077854;28;19916;-54
2022/06/30 03:16:01;;;;;;;;;;;;;;;22.79;65.66;99373.03;2077942;28;20004;-54
2022/06/30 03:17:02;;;;;;;;;;;;;;;22.76;65.84;99366.41;2079583;28;19921;-54
2022/06/30 03:18:02;;;;;;;;;;;;;;;22.77;65.80;99354.16;2077987;28;20031;-55
2022/06/30 03:19:03;;;;;;;;;;;;;;;22.76;65.85;99358.13;2079224;28;19959;-54
2022/06/30 03:20:03;;;;;;;;;;;;;;;22.78;65.97;99357.69;2078273;28;19960;-54
2022/06/30 03:21:04;;;;;;;;;;;;;;;22.77;66.35;99350.63;2076090;28;19921;-54
2022/06/30 03:22:04;;;;;;;;;;;;;;;22.76;65.72;99354.59;2076563;28;20425;-54
2022/06/30 03:23:04;;;;;;;;;;;;;;;22.76;66.12;99362.88;2074403;28;19917;-56
2022/06/30 03:24:05;;;;;;;;;;;;;;;22.76;66.14;99352.63;2077837;28;19923;-54
2022/06/30 03:25:05;;;;;;;;;;;;;;;22.77;66.15;99353.38;2075229;28;20350;-54
2022/06/30 03:26:06;;;;;;;;;;;;;;;22.76;66.13;99349.09;2076326;28;19921;-54
2022/06/30 03:27:06;;;;;;;;;;;;;;;22.77;65.91;99353.38;2077997;28;20230;-55
2022/06/30 03:28:06;;;;;;;;;;;;;;;22.75;66.10;99359.34;2070042;28;19909;-54
2022/06/30 03:29:07;;;;;;;;;;;;;;;22.75;66.03;99359.34;2068941;28;20324;-54
2022/06/30 03:30:07;;;;;;;;;;;;;;;22.75;66.34;99359.34;2079054;28;19921;-54
2022/06/30 03:31:08;;;;;;;;;;;;;;;22.75;66.20;99359.34;2076546;28;19909;-54
2022/06/30 03:32:08;;;;;;;;;;;;;;;22.74;66.35;99358.59;2077731;28;20301;-54
2022/06/30 03:33:08;;;;;;;;;;;;;;;22.73;66.32;99357.06;2067827;28;20362;-54
2022/06/30 03:34:09;;;;;;;;;;;;;;;22.73;66.38;99359.84;2069988;28;19917;-54
2022/06/30 03:35:09;;;;;;;;;;;;;;;22.73;66.19;99362.59;2069979;28;19960;-54
2022/06/30 03:36:10;;;;;;;;;;;;;;;22.73;66.11;99353.53;2077116;28;19916;-54
2022/06/30 03:37:10;;;;;;;;;;;;;;;22.74;66.15;99363.34;2077930;28;20620;-54
2022/06/30 03:38:11;;;;;;;;;;;;;;;22.73;66.23;99368.13;2073440;28;19931;-54
2022/06/30 03:39:11;;;;;;;;;;;;;;;22.74;66.45;99363.34;2077483;28;20436;-54
2022/06/30 03:40:12;;;;;;;;;;;;;;;22.73;66.18;99373.63;2075949;28;19977;-54
2022/06/30 03:41:12;;;;;;;;;;;;;;;22.72;66.27;99383.13;2077790;28;19968;-54
2022/06/30 03:42:12;;;;;;;;;;;;;;;22.73;66.16;99378.38;2074727;28;19955;-54
2022/06/30 03:43:13;;;;;;;;;;;;;;;22.73;66.15;99384.69;2076825;28;20005;-54
2022/06/30 03:44:13;;;;;;;;;;;;;;;22.73;65.95;99384.69;2077946;28;20277;-54
2022/06/30 03:45:13;;;;;;;;;;;;;;;22.72;65.67;99377.63;2075659;28;19916;-54
2022/06/30 03:46:14;;;;;;;;;;;;;;;22.72;66.04;99372.09;2078725;28;19952;-54
2022/06/30 03:47:14;;;;;;;;;;;;;;;22.72;66.32;99371.31;2070684;28;19956;-54
2022/06/30 03:48:14;;;;;;;;;;;;;;;22.71;66.40;99381.59;2078685;28;19916;-54
2022/06/30 03:49:16;;;;;;;;;;;;;;;22.72;65.89;99379.59;2079022;28;19966;-54
2022/06/30 03:50:17;;;;;;;;;;;;;;;22.72;66.17;99379.59;2075344;28;19916;-54
2022/06/30 03:51:17;;;;;;;;;;;;;;;22.71;65.92;99383.59;2077752;28;19916;-55
2022/06/30 03:52:18;;;;;;;;;;;;;;;22.72;66.09;99388.66;2073592;28;19991;-55
2022/06/30 03:53:18;;;;;;;;;;;;;;;22.71;66.47;99389.88;2076993;28;20380;-54
2022/06/30 03:54:19;;;;;;;;;;;;;;;22.70;66.08;99391.06;2078756;28;19909;-55
2022/06/30 03:55:19;;;;;;;;;;;;;;;22.70;66.21;99388.28;2076274;28;19971;-54
2022/06/30 03:56:20;;;;;;;;;;;;;;;22.71;66.18;99391.88;2079126;28;19923;-54
2022/06/30 03:57:20;;;;;;;;;;;;;;;22.70;65.63;99391.06;2077349;28;19944;-55
2022/06/30 03:58:20;;;;;;;;;;;;;;;22.70;65.57;99390.28;2076011;28;19944;-54
2022/06/30 03:59:21;;;;;;;;;;;;;;;22.69;65.70;99399.78;2079131;28;20485;-55
2022/06/30 04:00:23;;;;;;;;;;;;;;;22.68;66.10;99390.72;2073780;28;20212;-55
2022/06/30 04:01:23;;;;;;;;;;;;;;;22.69;65.99;99399.78;2075506;28;19944;-53
2022/06/30 04:02:23;;;;;;;;;;;;;;;22.68;66.04;99385.22;2072349;28;19952;-55
2022/06/30 04:03:24;;;;;;;;;;;;;;;22.68;65.58;99382.44;2076642;28;19905;-55
2022/06/30 04:04:24;;;;;;;;;;;;;;;22.69;65.64;99385.97;2079434;28;19917;-55
2022/06/30 04:05:24;;;;;;;;;;;;;;;22.67;65.89;99383.69;2077082;28;19982;-56
2022/06/30 04:06:25;;;;;;;;;;;;;;;22.68;66.39;99387.22;2078051;28;19939;-53
2022/06/30 04:07:25;;;;;;;;;;;;;;;22.68;66.40;99404.53;2076807;28;20008;-56
2022/06/30 04:08:25;;;;;;;;;;;;;;;22.67;66.31;99411.31;2078196;28;19917;-54
2022/06/30 04:09:26;;;;;;;;;;;;;;;22.67;65.87;99403.03;2077944;28;19928;-55
2022/06/30 04:10:26;;;;;;;;;;;;;;;22.67;66.01;99408.53;2076748;28;19943;-55
2022/06/30 04:11:26;;;;;;;;;;;;;;;22.67;65.84;99408.53;2078848;28;20068;-55
2022/06/30 04:12:26;;;;;;;;;;;;;;;22.67;66.53;99407.78;2077211;28;19921;-55
2022/06/30 04:13:27;;;;;;;;;;;;;;;22.66;66.21;99395.97;2079302;28;20046;-55
2022/06/30 04:14:27;;;;;;;;;;;;;;;22.66;66.20;99390.44;2077183;28;19972;-55
2022/06/30 04:15:27;;;;;;;;;;;;;;;22.66;66.55;99386.91;2077257;28;19932;-55
2022/06/30 04:16:28;;;;;;;;;;;;;;;22.66;66.28;99395.19;2078290;28;20645;-54
2022/06/30 04:17:28;;;;;;;;;;;;;;;22.65;66.45;99399.94;2078174;28;20113;-55
2022/06/30 04:18:29;;;;;;;;;;;;;;;22.65;65.99;99397.19;2077826;28;19916;-54
2022/06/30 04:19:30;;;;;;;;;;;;;;;22.65;65.66;99399.94;2075344;28;19917;-54
2022/06/30 04:20:30;;;;;;;;;;;;;;;22.65;65.74;99399.16;2075080;28;20031;-54
2022/06/30 04:21:30;;;;;;;;;;;;;;;22.64;66.05;99387.34;2077920;28;20343;-55
2022/06/30 04:22:31;;;;;;;;;;;;;;;22.65;66.14;99390.88;2072952;28;20007;-54
2022/06/30 04:23:31;;;;;;;;;;;;;;;22.65;66.10;99390.88;2073244;28;20061;-54
2022/06/30 04:24:32;;;;;;;;;;;;;;;22.65;66.20;99388.91;2077868;28;19920;-54
2022/06/30 04:25:32;;;;;;;;;;;;;;;22.64;66.05;99398.38;2076985;28;19926;-54
2022/06/30 04:26:32;;;;;;;;;;;;;;;22.63;66.29;99396.84;2069174;28;19917;-54
2022/06/30 04:27:33;;;;;;;;;;;;;;;22.65;66.33;99408.22;2068403;28;20209;-55
2022/06/30 04:28:33;;;;;;;;;;;;;;;22.64;66.49;99398.38;2076647;28;19928;-54
2022/06/30 04:29:33;;;;;;;;;;;;;;;22.62;66.92;99403.63;2074692;28;19917;-55
2022/06/30 04:33:12;;;;;;;;;;;;;;;22.63;65.70;99399.59;2073187;28;20312;-54
2022/06/30 04:34:12;;;;;;;;;;;;;;;22.64;66.10;99394.84;2075210;28;20045;-54
2022/06/30 04:35:12;;;;;;;;;;;;;;;22.62;66.30;99395.34;2074616;28;19916;-54
2022/06/30 04:36:13;;;;;;;;;;;;;;;22.61;66.42;99388.28;2069251;28;20081;-55
2022/06/30 04:37:13;;;;;;;;;;;;;;;22.63;66.27;99394.09;2068019;28;19989;-54
2022/06/30 04:38:13;;;;;;;;;;;;;;;22.61;66.62;99388.28;2077924;28;19916;-54
2022/06/30 04:39:13;;;;;;;;;;;;;;;22.61;66.40;99387.50;2073520;28;19920;-55
2022/06/30 04:41:33;;;;;;;;;;;;;;;22.61;66.27;99393.78;2071372;28;19920;-54
2022/06/30 04:42:33;;;;;;;;;;;;;;;22.60;65.94;99391.47;2075413;28;19916;-54
2022/06/30 04:43:33;;;;;;;;;;;;;;;22.60;65.69;99392.25;2075358;28;19924;-54
2022/06/30 04:44:34;;;;;;;;;;;;;;;22.59;66.04;99385.19;2072923;28;19964;-53
2022/06/30 04:45:35;;;;;;;;;;;;;;;22.60;65.96;99392.25;2074373;28;19953;-54
2022/06/30 04:46:35;;;;;;;;;;;;;;;22.59;66.31;99392.69;2067699;28;19932;-54
2022/06/30 04:47:36;;;;;;;;;;;;;;;22.59;66.61;99390.69;2076484;28;19959;-54
2022/06/30 04:48:36;;;;;;;;;;;;;;;22.59;66.50;99387.16;2075825;28;19920;-55
2022/06/30 04:49:37;;;;;;;;;;;;;;;22.59;66.87;99389.94;2070745;28;20328;-54
2022/06/30 04:50:38;;;;;;;;;;;;;;;22.57;66.36;99376.59;2068365;28;20231;-53
2022/06/30 04:51:38;;;;;;;;;;;;;;;22.58;66.25;99386.41;2076865;28;19964;-54
2022/06/30 04:52:38;;;;;;;;;;;;;;;22.59;66.03;99385.19;2069194;28;19921;-54
2022/06/30 04:53:40;;;;;;;;;;;;;;;22.58;65.85;99389.16;2068073;28;20170;-55
2022/06/30 04:54:40;;;;;;;;;;;;;;;22.57;66.23;99393.16;2070828;28;20501;-52
2022/06/30 04:55:40;;;;;;;;;;;;;;;22.57;65.97;99389.63;2072757;28;19917;-54
2022/06/30 04:56:41;;;;;;;;;;;;;;;22.56;65.91;99391.63;2075453;28;20092;-54
2022/06/30 04:57:41;;;;;;;;;;;;;;;22.57;66.05;99395.16;2077020;28;20410;-55
2022/06/30 04:58:42;;;;;;;;;;;;;;;22.58;66.19;99396.66;2078123;28;19916;-54
2022/06/30 04:59:42;;;;;;;;;;;;;;;22.57;66.36;99409.72;2069244;28;21010;-54
2022/06/30 05:00:42;;;;;;;;;;;;;;;22.57;66.76;99409.72;2068343;28;20321;-54
2022/06/30 05:01:42;;;;;;;;;;;;;;;22.57;66.52;99404.19;2078295;28;19921;-52
2022/06/30 05:02:43;;;;;;;;;;;;;;;22.57;66.53;99415.25;2074193;28;19917;-54
2022/06/30 05:03:43;;;;;;;;;;;;;;;22.57;66.37;99408.94;2078470;28;19916;-54
2022/06/30 05:04:43;;;;;;;;;;;;;;;22.57;66.32;99406.19;2075546;28;19921;-54
2022/06/30 05:05:44;;;;;;;;;;;;;;;22.56;66.82;99410.94;2075684;28;19981;-54
2022/06/30 05:06:44;;;;;;;;;;;;;;;22.56;66.45;99413.69;2074927;28;20434;-55
2022/06/30 05:07:44;;;;;;;;;;;;;;;22.56;66.38;99412.94;2073641;28;19970;-54
2022/06/30 05:08:46;;;;;;;;;;;;;;;22.54;66.69;99418.88;2071843;28;20497;-54
2022/06/30 05:09:46;;;;;;;;;;;;;;;22.55;66.33;99412.16;2071664;28;19966;-54
2022/06/30 05:10:47;;;;;;;;;;;;;;;22.54;66.38;99416.13;2073741;28;19969;-54
2022/06/30 05:11:47;;;;;;;;;;;;;;;22.55;66.58;99409.41;2071104;28;20007;-57
2022/06/30 05:12:47;;;;;;;;;;;;;;;22.55;66.16;99416.91;2076034;28;20134;-57
2022/06/30 05:13:47;;;;;;;;;;;;;;;22.55;66.14;99414.91;2076911;28;19917;-57
2022/06/30 05:14:48;;;;;;;;;;;;;;;22.54;66.63;99416.13;2071427;28;19924;-57
2022/06/30 05:15:48;;;;;;;;;;;;;;;22.55;66.56;99412.16;2074391;28;19917;-58
2022/06/30 05:16:48;;;;;;;;;;;;;;;22.54;66.73;99416.13;2077050;28;20038;-57
2022/06/30 05:17:48;;;;;;;;;;;;;;;22.54;66.55;99405.09;2073632;28;20233;-58
2022/06/30 05:18:49;;;;;;;;;;;;;;;22.55;66.58;99408.63;2074727;28;20543;-57
2022/06/30 05:19:49;;;;;;;;;;;;;;;22.54;66.34;99405.09;2074795;28;19923;-57
2022/06/30 05:20:49;;;;;;;;;;;;;;;22.55;66.51;99400.34;2077032;28;19916;-58
2022/06/30 05:21:50;;;;;;;;;;;;;;;22.55;66.35;99403.88;2075936;28;19952;-57
2022/06/30 05:22:50;;;;;;;;;;;;;;;22.55;66.43;99394.81;2076805;28;19913;-57
2022/06/30 05:26:31;;;;;;;;;;;;;;;22.53;67.47;99397.25;2074764;28;19909;-57
2022/06/30 05:27:31;;;;;;;;;;;;;;;22.53;66.59;99403.56;2077302;28;19939;-57